CES8667 ZWWW-ZPPP
Flight info
| Callsign | CES8667 |
|---|---|
| Flight time | N/A |
| Altitude | 39100 |
| Route | WUR W190 ADPET W188 DAKPA W189 AKLAS W192 ESDEX W191 DNC W565 BIGUX B330 SAMIV W30 MEBNA MEBNA2B |
| Aircraft | MD11/H-SDE1E2E3FGHIJ2J3J4J5M1RWXY/LB1D1 |
Departure
| Time | 2026-04-22 06:56 |
|---|---|
| Airport | Ürümqi Tianshan International Airport (ZWWW) |
Arrival
| Time | N/A |
|---|---|
| Airport | Kunming Changshui International Airport (ZPPP) |
| Time | Latitude | Longitude | Altitude | Speed | Heading |
|---|---|---|---|---|---|
| 2026-04-22 05:15 | 43.90841 | 87.49598 | 2126 ft | 0 kts | 73° |
| 2026-04-22 05:53 | 0.00041 | 0.01397 | 16 ft | 0 kts | 0° |
| 2026-04-22 05:54 | 43.92216 | 87.48552 | 2126 ft | 0 kts | 162° |
| 2026-04-22 06:21 | 43.92219 | 87.48550 | 2169 ft | 3 kts | 162° |
| 2026-04-22 06:21 | 43.92245 | 87.48542 | 2140 ft | 4 kts | 167° |
| 2026-04-22 06:22 | 43.92268 | 87.48529 | 2142 ft | 4 kts | 146° |
| 2026-04-22 06:22 | 43.92290 | 87.48508 | 2138 ft | 4 kts | 146° |
| 2026-04-22 06:22 | 43.92311 | 87.48488 | 2143 ft | 2 kts | 137° |
| 2026-04-22 06:22 | 43.92312 | 87.48486 | 2143 ft | 0 kts | 137° |
| 2026-04-22 06:49 | 43.92311 | 87.48487 | 2143 ft | 0 kts | 137° |
| 2026-04-22 06:49 | 43.92306 | 87.48493 | 2143 ft | 1 kts | 137° |
| 2026-04-22 06:49 | 43.92298 | 87.48503 | 2142 ft | 1 kts | 140° |
| 2026-04-22 06:50 | 43.92295 | 87.48506 | 2141 ft | 0 kts | 138° |
| 2026-04-22 06:50 | 43.92281 | 87.48527 | 2142 ft | 3 kts | 131° |
| 2026-04-22 06:50 | 43.92280 | 87.48535 | 2142 ft | 1 kts | 103° |
| 2026-04-22 06:50 | 43.92285 | 87.48543 | 2142 ft | 1 kts | 63° |
| 2026-04-22 06:51 | 43.92306 | 87.48580 | 2143 ft | 10 kts | 53° |
| 2026-04-22 06:51 | 43.92357 | 87.48685 | 2142 ft | 9 kts | 69° |
| 2026-04-22 06:51 | 43.92362 | 87.48786 | 2141 ft | 15 kts | 85° |
| 2026-04-22 06:51 | 43.92390 | 87.48968 | 2143 ft | 24 kts | 75° |
| 2026-04-22 06:52 | 43.92449 | 87.49210 | 2140 ft | 30 kts | 73° |
| 2026-04-22 06:52 | 43.92513 | 87.49487 | 2143 ft | 20 kts | 57° |
| 2026-04-22 06:52 | 43.92571 | 87.49510 | 2143 ft | 6 kts | 343° |
| 2026-04-22 06:52 | 43.92648 | 87.49474 | 2143 ft | 17 kts | 341° |
| 2026-04-22 06:53 | 43.92685 | 87.49457 | 2143 ft | 0 kts | 341° |
| 2026-04-22 06:53 | 43.92714 | 87.49443 | 2143 ft | 10 kts | 341° |
| 2026-04-22 06:53 | 43.92802 | 87.49397 | 2141 ft | 9 kts | 328° |
| 2026-04-22 06:53 | 43.92820 | 87.49352 | 2144 ft | 4 kts | 277° |
| 2026-04-22 06:54 | 43.92812 | 87.49251 | 2144 ft | 0 kts | 256° |
| 2026-04-22 06:54 | 43.92807 | 87.49228 | 2141 ft | 21 kts | 256° |
| 2026-04-22 06:55 | 43.92732 | 87.48792 | 2143 ft | 50 kts | 254° |
| 2026-04-22 06:55 | 43.92674 | 87.48579 | 2144 ft | 14 kts | 249° |
| 2026-04-22 06:55 | 43.92641 | 87.48461 | 2142 ft | 13 kts | 249° |
| 2026-04-22 06:55 | 43.92554 | 87.48026 | 2144 ft | 96 kts | 258° |
| 2026-04-22 06:56 | 43.92278 | 87.46738 | 2142 ft | 180 kts | 254° |
| 2026-04-22 06:56 | 43.91888 | 87.44884 | 2571 ft | 206 kts | 253° |
| 2026-04-22 06:56 | 43.91437 | 87.43103 | 3860 ft | 188 kts | 251° |
| 2026-04-22 06:56 | 43.91000 | 87.41374 | 5031 ft | 193 kts | 252° |
| 2026-04-22 06:57 | 43.90522 | 87.39435 | 5673 ft | 224 kts | 252° |
| 2026-04-22 06:57 | 43.90012 | 87.37375 | 6694 ft | 230 kts | 252° |
| 2026-04-22 06:57 | 43.89492 | 87.35279 | 7722 ft | 231 kts | 252° |
| 2026-04-22 06:57 | 43.88975 | 87.33173 | 8773 ft | 232 kts | 252° |
| 2026-04-22 06:58 | 43.88180 | 87.31206 | 9585 ft | 247 kts | 230° |
| 2026-04-22 06:58 | 43.86861 | 87.29431 | 9814 ft | 281 kts | 222° |
| 2026-04-22 06:58 | 43.85367 | 87.27588 | 10239 ft | 302 kts | 227° |
| 2026-04-22 06:58 | 43.84095 | 87.25108 | 10376 ft | 332 kts | 242° |
| 2026-04-22 06:59 | 43.83109 | 87.22098 | 10765 ft | 352 kts | 250° |
| 2026-04-22 06:59 | 43.82325 | 87.18884 | 11743 ft | 354 kts | 253° |
| 2026-04-22 06:59 | 43.81648 | 87.15581 | 12679 ft | 359 kts | 255° |
| 2026-04-22 06:59 | 43.81033 | 87.12232 | 13638 ft | 362 kts | 256° |
| 2026-04-22 07:00 | 43.80447 | 87.08829 | 14457 ft | 366 kts | 256° |
| 2026-04-22 07:00 | 43.79593 | 87.05499 | 15264 ft | 370 kts | 244° |
| 2026-04-22 07:00 | 43.78334 | 87.02383 | 16054 ft | 375 kts | 239° |
| 2026-04-22 07:00 | 43.76914 | 86.99344 | 16844 ft | 379 kts | 238° |
| 2026-04-22 07:01 | 43.75434 | 86.96308 | 17664 ft | 383 kts | 238° |
| 2026-04-22 07:01 | 43.73937 | 86.93243 | 18428 ft | 387 kts | 238° |
| 2026-04-22 07:01 | 43.72433 | 86.90146 | 19162 ft | 390 kts | 238° |
| 2026-04-22 07:01 | 43.71060 | 86.86920 | 19769 ft | 391 kts | 249° |
| 2026-04-22 07:02 | 43.70341 | 86.83327 | 20500 ft | 391 kts | 262° |
| 2026-04-22 07:02 | 43.70072 | 86.79578 | 21170 ft | 394 kts | 266° |
| 2026-04-22 07:02 | 43.69877 | 86.75790 | 21857 ft | 398 kts | 266° |
| 2026-04-22 07:02 | 43.69612 | 86.71977 | 22534 ft | 402 kts | 264° |
| 2026-04-22 07:03 | 43.69230 | 86.68144 | 23250 ft | 405 kts | 262° |
| 2026-04-22 07:03 | 43.68951 | 86.64277 | 23789 ft | 407 kts | 272° |
| 2026-04-22 07:03 | 43.69387 | 86.60426 | 24391 ft | 408 kts | 287° |
| 2026-04-22 07:03 | 43.70542 | 86.56851 | 25010 ft | 411 kts | 301° |
| 2026-04-22 07:04 | 43.72344 | 86.53787 | 25663 ft | 414 kts | 315° |
| 2026-04-22 07:04 | 43.74671 | 86.51438 | 26295 ft | 420 kts | 328° |
| 2026-04-22 07:04 | 43.77394 | 86.49939 | 26892 ft | 427 kts | 342° |
| 2026-04-22 07:04 | 43.80362 | 86.49388 | 27486 ft | 437 kts | 355° |
| 2026-04-22 07:05 | 43.83403 | 86.49826 | 28043 ft | 448 kts | 7° |
| 2026-04-22 07:05 | 43.86377 | 86.51248 | 28571 ft | 460 kts | 20° |
| 2026-04-22 07:05 | 43.89130 | 86.53609 | 29086 ft | 474 kts | 32° |
| 2026-04-22 07:05 | 43.91511 | 86.56784 | 29561 ft | 487 kts | 44° |
| 2026-04-22 07:06 | 43.93462 | 86.60721 | 30044 ft | 500 kts | 56° |
| 2026-04-22 07:06 | 43.94932 | 86.65143 | 30408 ft | 509 kts | 63° |
| 2026-04-22 07:06 | 43.96228 | 86.69726 | 30818 ft | 513 kts | 63° |
| 2026-04-22 07:06 | 43.97596 | 86.74266 | 31274 ft | 511 kts | 60° |
| 2026-04-22 07:07 | 43.99105 | 86.78704 | 31752 ft | 508 kts | 58° |
| 2026-04-22 07:07 | 44.00731 | 86.83043 | 32236 ft | 506 kts | 56° |
| 2026-04-22 07:07 | 44.02428 | 86.87313 | 32707 ft | 504 kts | 54° |
| 2026-04-22 07:07 | 44.04150 | 86.91528 | 33163 ft | 503 kts | 54° |
| 2026-04-22 07:08 | 44.05879 | 86.95728 | 33624 ft | 502 kts | 54° |
| 2026-04-22 07:08 | 44.07609 | 86.99940 | 34053 ft | 502 kts | 54° |
| 2026-04-22 07:08 | 44.09324 | 87.04142 | 34403 ft | 501 kts | 54° |
| 2026-04-22 07:08 | 44.11037 | 87.08362 | 34744 ft | 501 kts | 54° |
| 2026-04-22 07:09 | 44.12742 | 87.12580 | 35082 ft | 501 kts | 55° |
| 2026-04-22 07:09 | 44.14445 | 87.16804 | 35407 ft | 501 kts | 55° |
| 2026-04-22 07:09 | 44.16140 | 87.21021 | 35734 ft | 501 kts | 55° |
| 2026-04-22 07:09 | 44.17838 | 87.25251 | 36042 ft | 500 kts | 55° |
| 2026-04-22 07:10 | 44.19530 | 87.29471 | 36366 ft | 500 kts | 56° |
| 2026-04-22 07:10 | 44.21224 | 87.33701 | 36662 ft | 500 kts | 56° |
| 2026-04-22 07:10 | 44.22910 | 87.37919 | 36950 ft | 500 kts | 56° |
| 2026-04-22 07:10 | 44.24597 | 87.42143 | 37210 ft | 500 kts | 56° |
| 2026-04-22 07:11 | 44.26282 | 87.46369 | 37426 ft | 496 kts | 56° |
| 2026-04-22 07:11 | 44.27956 | 87.50576 | 37578 ft | 498 kts | 56° |
| 2026-04-22 07:11 | 44.29629 | 87.54806 | 37810 ft | 499 kts | 56° |
| 2026-04-22 07:11 | 44.31291 | 87.59045 | 38075 ft | 499 kts | 56° |
| 2026-04-22 07:12 | 44.32956 | 87.63293 | 38305 ft | 499 kts | 56° |
| 2026-04-22 07:12 | 44.34619 | 87.67525 | 38577 ft | 499 kts | 56° |
| 2026-04-22 07:12 | 44.36290 | 87.71771 | 38797 ft | 498 kts | 56° |
| 2026-04-22 07:12 | 44.37959 | 87.76007 | 38904 ft | 500 kts | 56° |
| 2026-04-22 07:13 | 44.39639 | 87.80269 | 38939 ft | 503 kts | 57° |
| 2026-04-22 07:13 | 44.42991 | 87.88794 | 38941 ft | 499 kts | 57° |
| 2026-04-22 07:14 | 44.46315 | 87.97281 | 38947 ft | 498 kts | 57° |
| 2026-04-22 07:14 | 44.49636 | 88.05780 | 38946 ft | 499 kts | 57° |
| 2026-04-22 07:15 | 44.52905 | 88.14323 | 38943 ft | 500 kts | 60° |
| 2026-04-22 07:15 | 44.55055 | 88.23620 | 38944 ft | 508 kts | 79° |
| 2026-04-22 07:16 | 44.55030 | 88.33539 | 38945 ft | 514 kts | 97° |
| 2026-04-22 07:16 | 44.53785 | 88.43382 | 38937 ft | 515 kts | 99° |
| 2026-04-22 07:17 | 44.52620 | 88.53262 | 38938 ft | 514 kts | 97° |
| 2026-04-22 07:17 | 44.51690 | 88.63165 | 38929 ft | 513 kts | 96° |
| 2026-04-22 07:18 | 44.50835 | 88.73067 | 38931 ft | 513 kts | 95° |
| 2026-04-22 07:18 | 44.49971 | 88.82972 | 38926 ft | 513 kts | 96° |
| 2026-04-22 07:19 | 44.49089 | 88.92856 | 38922 ft | 512 kts | 96° |
| 2026-04-22 07:19 | 44.48195 | 89.02717 | 38916 ft | 512 kts | 96° |
| 2026-04-22 07:20 | 44.47272 | 89.12584 | 38913 ft | 512 kts | 96° |
| 2026-04-22 07:20 | 44.46332 | 89.22446 | 38906 ft | 512 kts | 96° |
| 2026-04-22 07:21 | 44.45396 | 89.32295 | 38904 ft | 511 kts | 96° |
| 2026-04-22 07:21 | 44.44457 | 89.42133 | 38900 ft | 511 kts | 96° |
| 2026-04-22 07:22 | 44.43510 | 89.51971 | 38896 ft | 511 kts | 97° |
| 2026-04-22 07:22 | 44.42556 | 89.61790 | 38893 ft | 511 kts | 97° |
| 2026-04-22 07:23 | 44.41304 | 89.71537 | 38890 ft | 511 kts | 104° |
| 2026-04-22 07:23 | 44.39305 | 89.81027 | 38883 ft | 511 kts | 107° |
| 2026-04-22 07:24 | 44.37158 | 89.90482 | 38882 ft | 510 kts | 107° |
| 2026-04-22 07:24 | 44.35065 | 89.99935 | 38880 ft | 510 kts | 107° |
| 2026-04-22 07:25 | 44.33006 | 90.09390 | 38880 ft | 510 kts | 107° |
| 2026-04-22 07:25 | 44.30948 | 90.18836 | 38879 ft | 509 kts | 107° |
| 2026-04-22 07:26 | 44.28882 | 90.28263 | 38880 ft | 509 kts | 107° |
| 2026-04-22 07:26 | 44.26810 | 90.37665 | 38879 ft | 508 kts | 107° |
| 2026-04-22 07:27 | 44.24728 | 90.47070 | 38875 ft | 508 kts | 107° |
| 2026-04-22 07:27 | 44.22642 | 90.56452 | 38880 ft | 507 kts | 107° |
| 2026-04-22 07:28 | 44.19503 | 90.70495 | 38878 ft | 507 kts | 107° |
| 2026-04-22 07:28 | 44.17394 | 90.79850 | 38875 ft | 506 kts | 108° |
| 2026-04-22 07:29 | 44.15249 | 90.89171 | 38883 ft | 506 kts | 108° |
| 2026-04-22 07:29 | 44.13123 | 90.98459 | 38880 ft | 506 kts | 108° |
| 2026-04-22 07:30 | 44.10990 | 91.07791 | 38881 ft | 506 kts | 108° |
| 2026-04-22 07:30 | 44.08861 | 91.17088 | 38879 ft | 505 kts | 108° |
| 2026-04-22 07:31 | 44.06454 | 91.26231 | 38884 ft | 504 kts | 116° |
| 2026-04-22 07:31 | 44.02625 | 91.34280 | 38886 ft | 500 kts | 135° |
| 2026-04-22 07:32 | 43.97329 | 91.40355 | 38891 ft | 494 kts | 152° |
| 2026-04-22 07:32 | 43.91128 | 91.44176 | 38892 ft | 487 kts | 168° |
| 2026-04-22 07:33 | 43.84530 | 91.45906 | 38894 ft | 482 kts | 176° |
| 2026-04-22 07:33 | 43.77874 | 91.46964 | 38894 ft | 482 kts | 177° |
| 2026-04-22 07:34 | 43.71223 | 91.48053 | 38894 ft | 483 kts | 176° |
| 2026-04-22 07:34 | 43.64573 | 91.49233 | 38887 ft | 483 kts | 176° |
| 2026-04-22 07:35 | 43.57912 | 91.50443 | 38887 ft | 483 kts | 176° |
| 2026-04-22 07:35 | 43.51259 | 91.51651 | 38881 ft | 484 kts | 176° |
| 2026-04-22 07:36 | 43.44597 | 91.52855 | 38877 ft | 484 kts | 176° |
| 2026-04-22 07:36 | 43.37935 | 91.54057 | 38873 ft | 484 kts | 176° |
| 2026-04-22 07:37 | 43.31263 | 91.55264 | 38869 ft | 484 kts | 176° |
| 2026-04-22 07:37 | 43.24588 | 91.56470 | 38863 ft | 485 kts | 176° |
| 2026-04-22 07:38 | 43.17909 | 91.57675 | 38858 ft | 485 kts | 176° |
| 2026-04-22 07:38 | 43.11228 | 91.58877 | 38850 ft | 486 kts | 176° |
| 2026-04-22 07:39 | 43.04540 | 91.60078 | 38846 ft | 486 kts | 176° |
| 2026-04-22 07:39 | 42.97845 | 91.61277 | 38841 ft | 486 kts | 176° |
| 2026-04-22 07:40 | 42.91149 | 91.62473 | 38834 ft | 487 kts | 176° |
| 2026-04-22 07:40 | 42.84451 | 91.63668 | 38831 ft | 487 kts | 176° |
| 2026-04-22 07:41 | 42.77746 | 91.64861 | 38833 ft | 487 kts | 176° |
| 2026-04-22 07:41 | 42.71031 | 91.66053 | 38832 ft | 487 kts | 176° |
| 2026-04-22 07:42 | 42.64316 | 91.67243 | 38830 ft | 487 kts | 176° |
| 2026-04-22 07:42 | 42.57603 | 91.68425 | 38835 ft | 488 kts | 176° |
| 2026-04-22 07:43 | 42.50880 | 91.69608 | 38836 ft | 488 kts | 176° |
| 2026-04-22 07:43 | 42.44155 | 91.70814 | 38836 ft | 489 kts | 176° |
| 2026-04-22 07:44 | 42.37425 | 91.72025 | 38833 ft | 489 kts | 176° |
| 2026-04-22 07:44 | 42.30691 | 91.73234 | 38839 ft | 490 kts | 176° |
| 2026-04-22 07:45 | 42.23951 | 91.74441 | 38842 ft | 490 kts | 176° |
| 2026-04-22 07:45 | 42.17201 | 91.75650 | 38839 ft | 490 kts | 176° |
| 2026-04-22 07:46 | 42.10454 | 91.76860 | 38845 ft | 491 kts | 176° |
| 2026-04-22 07:46 | 42.03696 | 91.78065 | 38846 ft | 491 kts | 176° |
| 2026-04-22 07:47 | 41.96931 | 91.79268 | 38844 ft | 491 kts | 176° |
| 2026-04-22 07:47 | 41.90167 | 91.80468 | 38847 ft | 492 kts | 176° |
| 2026-04-22 07:48 | 41.83398 | 91.81667 | 38851 ft | 492 kts | 176° |
| 2026-04-22 07:48 | 41.76617 | 91.82865 | 38849 ft | 492 kts | 176° |
| 2026-04-22 07:49 | 41.69876 | 91.84498 | 38846 ft | 496 kts | 167° |